createdAt,value
2023-02-19T00:01:47.951Z,87.75
2023-02-19T00:04:16.983Z,87.59
2023-02-19T00:06:45.757Z,88.05
2023-02-19T00:09:14.903Z,87.52
2023-02-19T00:11:44.207Z,88.63
2023-02-19T00:14:15.719Z,88.71
2023-02-19T00:16:43.649Z,89.52
2023-02-19T00:19:15.250Z,88.43
2023-02-19T00:21:43.060Z,88.45
2023-02-19T00:24:13.208Z,88.09
2023-02-19T00:26:42.667Z,88.11
2023-02-19T00:29:14.282Z,87.73
2023-02-19T00:31:45.133Z,88.00
2023-02-19T00:34:14.036Z,87.50
2023-02-19T00:36:44.936Z,87.70
2023-02-19T00:39:15.724Z,90.19
2023-02-19T00:41:43.807Z,90.59
2023-02-19T00:44:13.981Z,91.03
2023-02-19T00:46:43.841Z,90.12
2023-02-19T00:49:16.506Z,95.40
2023-02-19T00:51:44.508Z,94.97
2023-02-19T00:54:12.941Z,94.03
2023-02-19T00:56:41.253Z,93.82
2023-02-19T00:59:09.140Z,93.51
2023-02-19T01:01:38.898Z,93.64
2023-02-19T01:04:07.054Z,93.06
2023-02-19T01:06:35.585Z,92.41
2023-02-19T01:09:04.564Z,93.32
2023-02-19T01:11:34.873Z,92.98
2023-02-19T01:14:03.460Z,92.93
2023-02-19T01:16:31.935Z,92.81
2023-02-19T01:19:01.618Z,92.31
2023-02-19T01:21:31.159Z,91.64
2023-02-19T01:23:59.425Z,92.15
2023-02-19T01:26:31.631Z,92.47
2023-02-19T01:29:00.212Z,93.68
2023-02-19T01:31:28.761Z,92.46
2023-02-19T01:33:58.647Z,93.06
2023-02-19T01:36:28.614Z,97.12
2023-02-19T01:38:56.987Z,98.22
2023-02-19T01:41:26.653Z,97.19
2023-02-19T01:43:58.606Z,94.47
2023-02-19T01:46:28.157Z,93.28
2023-02-19T01:48:58.662Z,91.74
2023-02-19T01:51:28.654Z,91.16
2023-02-19T01:54:00.210Z,91.37
2023-02-19T01:56:28.514Z,90.23
2023-02-19T01:58:56.289Z,90.95
2023-02-19T02:01:24.111Z,91.25
2023-02-19T02:03:55.281Z,90.55
2023-02-19T02:06:25.575Z,89.74
2023-02-19T02:09:14.442Z,90.32
2023-02-19T02:11:45.389Z,91.17
2023-02-19T02:14:13.655Z,91.70
2023-02-19T02:16:50.311Z,91.80
2023-02-19T02:19:34.944Z,91.91
2023-02-19T02:22:12.523Z,93.11
2023-02-19T02:25:27.218Z,94.56
2023-02-19T02:28:06.993Z,96.75
2023-02-19T02:30:40.580Z,97.75
2023-02-19T02:33:17.705Z,96.18
2023-02-19T02:35:49.134Z,96.54
2023-02-19T02:38:21.570Z,96.80
2023-02-19T02:40:49.709Z,98.31
2023-02-19T02:43:17.738Z,98.57
2023-02-19T02:45:47.001Z,98.32
2023-02-19T02:48:40.723Z,99.23
2023-02-19T02:51:16.724Z,99.75
2023-02-19T02:54:13.288Z,100.00
2023-02-19T02:56:42.732Z,100.00
2023-02-19T02:59:13.540Z,99.90
2023-02-19T03:02:12.524Z,100.00
2023-02-19T03:05:05.932Z,100.00
2023-02-19T03:07:38.261Z,100.00
2023-02-19T03:10:09.597Z,100.00
2023-02-19T03:12:59.420Z,100.00
2023-02-19T03:15:48.817Z,100.00
2023-02-19T03:18:36.928Z,100.00
2023-02-19T03:21:07.454Z,100.00
2023-02-19T03:23:55.420Z,100.00
2023-02-19T03:26:25.584Z,100.00
2023-02-19T03:29:14.710Z,100.00
2023-02-19T03:31:48.379Z,100.00
2023-02-19T03:34:25.797Z,100.00
2023-02-19T03:36:59.217Z,100.00
2023-02-19T03:39:27.580Z,100.00
2023-02-19T03:42:04.144Z,100.00
2023-02-19T03:44:42.369Z,100.00
2023-02-19T03:47:18.906Z,100.00
2023-02-19T03:49:54.819Z,100.00
2023-02-19T03:52:35.316Z,100.00
2023-02-19T03:55:07.473Z,100.00
2023-02-19T03:57:46.620Z,100.00
2023-02-19T04:00:18.844Z,100.00
2023-02-19T04:02:55.259Z,100.00
2023-02-19T04:05:28.209Z,100.00
2023-02-19T04:08:05.768Z,100.00
2023-02-19T04:10:41.323Z,100.00
2023-02-19T04:13:16.264Z,100.00
2023-02-19T04:15:48.118Z,100.00
2023-02-19T04:18:18.797Z,100.00
2023-02-19T04:20:49.247Z,100.00
2023-02-19T04:23:20.380Z,100.00
2023-02-19T04:25:52.659Z,100.00
2023-02-19T04:28:22.740Z,100.00
2023-02-19T04:30:50.626Z,100.00
2023-02-19T04:33:18.440Z,100.00
2023-02-19T04:35:47.479Z,100.00
2023-02-19T04:38:15.327Z,100.00
2023-02-19T04:40:43.063Z,100.00
2023-02-19T04:43:10.850Z,98.94
2023-02-19T04:45:40.939Z,98.53
2023-02-19T04:48:08.723Z,97.22
2023-02-19T04:50:39.372Z,96.56
2023-02-19T04:53:09.170Z,95.78
2023-02-19T04:55:38.718Z,95.82
2023-02-19T04:58:06.796Z,97.18
2023-02-19T05:00:34.703Z,96.24
2023-02-19T05:03:02.441Z,95.42
2023-02-19T05:05:30.357Z,94.97
2023-02-19T05:07:58.553Z,94.36
2023-02-19T05:10:27.691Z,94.45
2023-02-19T05:12:57.965Z,93.18
2023-02-19T05:15:25.844Z,93.70
2023-02-19T05:17:53.578Z,93.21
2023-02-19T05:20:22.920Z,92.77
2023-02-19T05:22:50.740Z,93.94
2023-02-19T05:25:18.663Z,93.50
2023-02-19T05:27:47.795Z,94.10
2023-02-19T05:30:15.585Z,96.07
2023-02-19T05:32:43.265Z,95.60
2023-02-19T05:35:10.961Z,95.08
2023-02-19T05:37:38.704Z,95.55
2023-02-19T05:40:07.246Z,95.58
2023-02-19T05:42:35.003Z,95.81
2023-02-19T05:45:04.236Z,94.74
2023-02-19T05:47:32.004Z,95.71
2023-02-19T05:49:59.669Z,97.10
2023-02-19T05:52:29.486Z,96.51
2023-02-19T05:54:57.152Z,96.00
2023-02-19T05:57:27.273Z,96.54
2023-02-19T05:59:54.962Z,95.75
2023-02-19T06:02:24.001Z,96.14
2023-02-19T06:04:51.792Z,95.76
2023-02-19T06:07:19.545Z,96.28
2023-02-19T06:09:47.322Z,95.74
2023-02-19T06:12:17.185Z,94.69
2023-02-19T06:14:45.069Z,94.36
2023-02-19T06:17:12.830Z,94.63
2023-02-19T06:19:42.193Z,94.30
2023-02-19T06:22:10.524Z,94.50
2023-02-19T06:24:38.217Z,94.48
2023-02-19T06:27:08.566Z,93.79
2023-02-19T06:29:38.219Z,93.74
2023-02-19T06:32:06.652Z,92.81
2023-02-19T06:34:35.586Z,92.71
2023-02-19T06:37:04.674Z,91.63
2023-02-19T06:39:32.401Z,91.48
2023-02-19T06:42:00.148Z,91.28
2023-02-19T06:44:27.848Z,91.19
2023-02-19T06:46:56.896Z,89.62
2023-02-19T06:49:24.737Z,88.99
2023-02-19T06:51:52.489Z,89.02
2023-02-19T06:54:21.573Z,88.87
2023-02-19T06:56:51.647Z,89.09
2023-02-19T06:59:19.501Z,88.55
2023-02-19T07:01:47.567Z,88.09
2023-02-19T07:04:15.864Z,87.66
2023-02-19T07:06:46.016Z,88.03
2023-02-19T07:09:13.892Z,87.61
2023-02-19T07:11:43.111Z,87.16
2023-02-19T07:14:17.637Z,87.04
2023-02-19T07:16:47.269Z,86.22
2023-02-19T07:19:16.277Z,86.68
2023-02-19T07:21:44.274Z,86.51
2023-02-19T07:24:12.105Z,87.10
2023-02-19T07:26:39.894Z,86.70
2023-02-19T07:29:10.560Z,86.85
2023-02-19T07:31:38.388Z,86.93
2023-02-19T07:34:07.711Z,85.89
2023-02-19T07:36:35.446Z,85.72
2023-02-19T07:39:03.195Z,85.64
2023-02-19T07:41:31.043Z,84.58
2023-02-19T07:43:59.669Z,84.75
2023-02-19T07:46:31.196Z,84.36
2023-02-19T07:49:00.670Z,83.89
2023-02-19T07:51:28.422Z,83.43
2023-02-19T07:53:56.164Z,83.86
2023-02-19T07:56:23.917Z,82.77
2023-02-19T07:58:51.719Z,83.02
2023-02-19T08:01:42.027Z,83.33
2023-02-19T08:04:12.149Z,83.15
2023-02-19T08:06:40.267Z,83.23
2023-02-19T08:09:08.364Z,83.12
2023-02-19T08:11:53.837Z,82.79
2023-02-19T08:14:26.032Z,83.00
2023-02-19T08:16:56.245Z,83.26
2023-02-19T08:19:25.378Z,83.21
2023-02-19T08:21:53.400Z,82.63
2023-02-19T08:24:21.184Z,82.71
2023-02-19T08:26:48.910Z,82.86
2023-02-19T08:29:16.580Z,82.82
2023-02-19T08:31:44.526Z,83.14
2023-02-19T08:34:12.426Z,82.57
2023-02-19T08:36:44.168Z,82.00
2023-02-19T08:39:11.894Z,82.12
2023-02-19T08:41:40.729Z,82.36
2023-02-19T08:44:08.848Z,82.33
2023-02-19T08:46:36.610Z,81.96
2023-02-19T08:49:04.704Z,80.59
2023-02-19T08:51:35.955Z,80.57
2023-02-19T08:54:05.666Z,79.01
2023-02-19T08:56:33.559Z,79.06
2023-02-19T08:59:01.359Z,77.51
2023-02-19T09:01:30.800Z,78.00
2023-02-19T09:03:58.733Z,78.61
2023-02-19T09:06:26.510Z,78.11
2023-02-19T09:08:54.326Z,77.59
2023-02-19T09:11:23.445Z,76.32
2023-02-19T09:13:51.218Z,77.16
2023-02-19T09:16:19.039Z,77.36
2023-02-19T09:18:46.825Z,76.69
2023-02-19T09:21:14.744Z,77.56
2023-02-19T09:23:42.561Z,75.91
2023-02-19T09:26:11.505Z,75.09
2023-02-19T09:28:43.145Z,74.94
2023-02-19T09:31:13.333Z,74.38
2023-02-19T09:33:43.650Z,74.00
2023-02-19T09:36:12.476Z,74.27
2023-02-19T09:38:40.607Z,73.91
2023-02-19T09:41:17.956Z,72.52
2023-02-19T09:43:47.379Z,73.25
2023-02-19T09:46:26.045Z,72.39
2023-02-19T09:49:03.397Z,71.71
2023-02-19T09:51:34.206Z,70.90
2023-02-19T09:54:03.417Z,71.16
2023-02-19T09:56:31.459Z,71.06
2023-02-19T09:59:01.717Z,68.83
2023-02-19T10:01:38.386Z,68.66
2023-02-19T10:04:06.216Z,66.96
2023-02-19T10:06:36.236Z,68.04
2023-02-19T10:09:20.168Z,66.79
2023-02-19T10:11:50.609Z,66.63
2023-02-19T10:14:27.220Z,65.72
2023-02-19T10:16:54.921Z,65.96
2023-02-19T10:19:22.710Z,64.02
2023-02-19T10:21:50.426Z,65.23
2023-02-19T10:24:22.848Z,65.47
2023-02-19T10:26:51.804Z,64.24
2023-02-19T10:29:24.725Z,64.34
2023-02-19T10:32:14.226Z,64.29
2023-02-19T10:34:42.071Z,64.88
2023-02-19T10:37:15.133Z,64.94
2023-02-19T10:39:45.961Z,65.76
2023-02-19T10:42:19.018Z,64.96
2023-02-19T10:44:55.513Z,65.22
2023-02-19T10:47:26.763Z,66.24
2023-02-19T10:49:58.214Z,64.89
2023-02-19T10:52:29.130Z,65.01
2023-02-19T10:54:58.670Z,63.63
2023-02-19T10:57:32.995Z,63.46
2023-02-19T11:00:04.058Z,63.38
2023-02-19T11:02:32.476Z,63.36
2023-02-19T11:05:07.209Z,62.76
2023-02-19T11:07:35.543Z,63.88
2023-02-19T11:10:05.716Z,63.51
2023-02-19T11:12:36.003Z,64.27
2023-02-19T11:15:21.228Z,63.49
2023-02-19T11:17:56.504Z,64.43
2023-02-19T11:20:28.981Z,64.97
2023-02-19T11:23:01.911Z,65.30
2023-02-19T11:25:30.844Z,64.81
2023-02-19T11:28:02.684Z,64.84
2023-02-19T11:30:37.794Z,64.79
2023-02-19T11:33:22.209Z,64.52
2023-02-19T11:35:51.599Z,64.82
2023-02-19T11:38:21.497Z,64.40
2023-02-19T11:40:55.603Z,64.29
2023-02-19T11:43:45.819Z,63.08
2023-02-19T11:46:22.197Z,62.04
2023-02-19T11:48:56.683Z,63.15
2023-02-19T11:51:42.282Z,63.04
2023-02-19T11:54:23.831Z,63.47
2023-02-19T11:57:00.512Z,63.82
2023-02-19T11:59:34.914Z,64.01
2023-02-19T12:02:28.190Z,63.46
2023-02-19T12:05:19.242Z,63.37
2023-02-19T12:08:34.208Z,63.18
2023-02-19T12:11:15.295Z,63.32
2023-02-19T12:14:03.043Z,63.24
2023-02-19T12:16:37.463Z,63.47
2023-02-19T12:19:30.089Z,63.51
2023-02-19T12:22:13.453Z,61.61
2023-02-19T12:24:55.570Z,62.57
2023-02-19T12:27:38.827Z,62.19
2023-02-19T12:30:32.809Z,64.00
2023-02-19T12:33:29.864Z,63.69
2023-02-19T12:36:09.749Z,64.38
2023-02-19T12:38:44.218Z,64.70
2023-02-19T12:41:20.773Z,63.12
2023-02-19T12:43:56.587Z,62.84
2023-02-19T12:46:32.527Z,62.11
2023-02-19T12:49:06.855Z,63.27
2023-02-19T12:51:44.079Z,63.29
2023-02-19T12:54:17.921Z,62.90
2023-02-19T12:56:51.084Z,63.27
2023-02-19T12:59:25.355Z,63.76
2023-02-19T13:02:01.593Z,61.99
2023-02-19T13:04:41.349Z,62.13
2023-02-19T13:07:18.188Z,61.75
2023-02-19T13:09:50.557Z,61.25
2023-02-19T13:12:22.539Z,61.60
2023-02-19T13:14:56.200Z,61.32
2023-02-19T13:17:29.129Z,61.39
2023-02-19T13:20:01.782Z,60.95
2023-02-19T13:22:56.709Z,61.63
2023-02-19T13:25:41.130Z,61.70
2023-02-19T13:28:25.329Z,61.13
2023-02-19T13:31:14.442Z,62.26
2023-02-19T13:33:56.478Z,63.25
2023-02-19T13:36:27.464Z,64.18
2023-02-19T13:38:58.610Z,64.23
2023-02-19T13:41:30.982Z,66.09
2023-02-19T13:44:03.478Z,66.25
2023-02-19T13:46:37.903Z,65.50
2023-02-19T13:49:26.283Z,65.94
2023-02-19T13:51:55.576Z,65.28
2023-02-19T13:54:29.769Z,65.56
2023-02-19T13:57:35.266Z,66.67
2023-02-19T14:00:03.202Z,68.66
2023-02-19T14:02:35.199Z,68.14
2023-02-19T14:05:07.254Z,68.57
2023-02-19T14:07:53.972Z,69.33
2023-02-19T14:11:02.379Z,66.92
2023-02-19T14:13:59.149Z,69.96
2023-02-19T14:16:31.833Z,68.84
2023-02-19T14:18:59.919Z,69.39
2023-02-19T14:21:36.519Z,68.34
2023-02-19T14:24:06.038Z,67.47
2023-02-19T14:26:35.661Z,66.45
2023-02-19T14:29:04.261Z,66.76
2023-02-19T14:31:34.790Z,65.53
2023-02-19T14:34:06.612Z,66.22
2023-02-19T14:36:39.766Z,65.82
2023-02-19T14:39:13.976Z,66.10
2023-02-19T14:41:46.989Z,65.80
2023-02-19T14:44:21.489Z,65.74
2023-02-19T14:46:57.773Z,64.08
2023-02-19T14:49:31.489Z,63.79
2023-02-19T14:52:03.970Z,63.83
2023-02-19T14:54:40.724Z,63.54
2023-02-19T14:57:19.222Z,62.50
2023-02-19T14:59:58.604Z,62.27
2023-02-19T15:02:27.508Z,63.31
2023-02-19T15:04:55.908Z,63.62
2023-02-19T15:07:27.549Z,62.37
2023-02-19T15:09:58.574Z,62.66
2023-02-19T15:12:31.465Z,63.21
2023-02-19T15:15:03.931Z,63.01
2023-02-19T15:17:34.579Z,62.91
2023-02-19T15:20:09.886Z,63.17
2023-02-19T15:22:41.517Z,63.79
2023-02-19T15:25:13.350Z,64.10
2023-02-19T15:27:42.495Z,63.29
2023-02-19T15:30:21.340Z,62.55
2023-02-19T15:32:56.007Z,62.99
2023-02-19T15:35:25.235Z,63.75
2023-02-19T15:37:55.000Z,63.97
2023-02-19T15:40:27.788Z,64.04
2023-02-19T15:42:58.319Z,63.66
2023-02-19T15:45:29.588Z,64.24
2023-02-19T15:48:00.877Z,64.74
2023-02-19T15:50:31.846Z,64.32
2023-02-19T15:53:09.322Z,65.20
2023-02-19T15:55:41.870Z,65.85
2023-02-19T15:58:20.467Z,65.66
2023-02-19T16:00:51.512Z,65.12
2023-02-19T16:03:21.274Z,65.70
2023-02-19T16:05:59.639Z,65.09
2023-02-19T16:08:31.209Z,65.82
2023-02-19T16:11:00.900Z,65.71
2023-02-19T16:13:33.759Z,66.04
2023-02-19T16:16:07.569Z,65.98
2023-02-19T16:18:36.135Z,66.79
2023-02-19T16:21:08.998Z,66.41
2023-02-19T16:23:42.278Z,66.70
2023-02-19T16:26:10.189Z,67.05
2023-02-19T16:28:42.086Z,67.16
2023-02-19T16:31:12.923Z,66.27
2023-02-19T16:33:42.793Z,67.57
2023-02-19T16:36:35.878Z,67.88
2023-02-19T16:39:21.711Z,68.02
2023-02-19T16:42:14.408Z,68.49
2023-02-19T16:44:44.258Z,68.33
2023-02-19T16:47:25.984Z,68.60
2023-02-19T16:49:54.008Z,68.33
2023-02-19T16:52:22.083Z,68.49
2023-02-19T16:54:50.544Z,67.98
2023-02-19T16:57:18.576Z,67.91
2023-02-19T16:59:48.771Z,68.27
2023-02-19T17:02:21.760Z,68.10
2023-02-19T17:04:50.649Z,67.97
2023-02-19T17:07:19.140Z,67.52
2023-02-19T17:09:47.259Z,67.59
2023-02-19T17:12:18.120Z,67.20
2023-02-19T17:14:47.301Z,67.70
2023-02-19T17:17:15.146Z,67.65
2023-02-19T17:19:44.248Z,68.30
2023-02-19T17:22:17.121Z,68.23
2023-02-19T17:24:46.706Z,68.22
2023-02-19T17:27:14.984Z,68.21
2023-02-19T17:29:42.832Z,68.60
2023-02-19T17:32:11.979Z,68.57
2023-02-19T17:34:39.953Z,68.79
2023-02-19T17:37:07.681Z,68.55
2023-02-19T17:39:35.423Z,69.04
2023-02-19T17:42:03.761Z,70.05
2023-02-19T17:44:31.539Z,71.79
2023-02-19T17:46:59.296Z,72.87
2023-02-19T17:49:28.547Z,72.98
2023-02-19T17:51:56.311Z,73.48
2023-02-19T17:54:24.070Z,73.95
2023-02-19T17:56:51.900Z,73.42
2023-02-19T17:59:19.654Z,72.75
2023-02-19T18:01:47.508Z,73.96
2023-02-19T18:04:15.352Z,73.47
2023-02-19T18:06:44.553Z,72.60
2023-02-19T18:09:15.205Z,71.47
2023-02-19T18:11:45.687Z,70.05
2023-02-19T18:14:13.602Z,69.50
2023-02-19T18:16:48.729Z,70.08
2023-02-19T18:19:17.552Z,69.80
2023-02-19T18:21:46.656Z,70.17
2023-02-19T18:24:14.493Z,69.60
2023-02-19T18:26:43.090Z,70.18
2023-02-19T18:29:10.885Z,69.80
2023-02-19T18:31:39.735Z,69.71
2023-02-19T18:34:16.355Z,69.57
2023-02-19T18:36:46.682Z,69.58
2023-02-19T18:39:14.544Z,70.04
2023-02-19T18:41:42.870Z,69.43
2023-02-19T18:44:10.687Z,69.02
2023-02-19T18:46:39.331Z,68.55
2023-02-19T18:49:07.946Z,69.86
2023-02-19T18:51:35.711Z,70.48
2023-02-19T18:54:09.322Z,70.26
2023-02-19T18:56:43.443Z,69.49
2023-02-19T18:59:12.307Z,69.61
2023-02-19T19:01:41.650Z,70.52
2023-02-19T19:04:10.859Z,70.60
2023-02-19T19:06:38.835Z,70.48
2023-02-19T19:09:08.621Z,70.64
2023-02-19T19:11:36.622Z,70.92
2023-02-19T19:14:04.892Z,70.54
2023-02-19T19:16:34.774Z,70.02
2023-02-19T19:19:03.356Z,69.43
2023-02-19T19:21:32.180Z,69.50
2023-02-19T19:24:00.628Z,69.37
2023-02-19T19:26:30.608Z,69.67
2023-02-19T19:28:59.414Z,70.21
2023-02-19T19:31:37.682Z,70.00
2023-02-19T19:34:06.240Z,69.91
2023-02-19T19:36:35.002Z,69.56
2023-02-19T19:39:03.929Z,69.19
2023-02-19T19:41:33.239Z,69.16
2023-02-19T19:44:04.256Z,68.88
2023-02-19T19:46:32.318Z,69.61
2023-02-19T19:49:00.341Z,69.66
2023-02-19T19:51:32.820Z,69.72
2023-02-19T19:54:00.983Z,70.11
2023-02-19T19:56:28.739Z,69.70
2023-02-19T19:58:57.937Z,69.82
2023-02-19T20:01:26.128Z,69.77
2023-02-19T20:03:53.989Z,69.41
2023-02-19T20:06:27.019Z,69.66
2023-02-19T20:08:55.091Z,70.98
2023-02-19T20:11:23.204Z,70.70
2023-02-19T20:13:53.267Z,70.77
2023-02-19T20:16:26.936Z,71.81
2023-02-19T20:18:55.210Z,71.69
2023-02-19T20:21:22.990Z,72.87
2023-02-19T20:23:50.844Z,73.10
2023-02-19T20:26:25.583Z,73.40
2023-02-19T20:28:53.393Z,74.29
2023-02-19T20:31:21.842Z,74.98
2023-02-19T20:33:52.084Z,75.58
2023-02-19T20:36:20.845Z,74.67
2023-02-19T20:38:51.067Z,75.44
2023-02-19T20:41:18.809Z,74.94
2023-02-19T20:43:46.577Z,74.38
2023-02-19T20:46:14.821Z,74.85
2023-02-19T20:48:42.681Z,75.00
2023-02-19T20:51:11.791Z,74.58
2023-02-19T20:53:40.689Z,74.50
2023-02-19T20:56:08.540Z,73.86
2023-02-19T20:58:36.257Z,74.04
2023-02-19T21:01:04.136Z,73.46
2023-02-19T21:03:31.927Z,73.14
2023-02-19T21:06:02.002Z,73.70
2023-02-19T21:08:31.138Z,73.14
2023-02-19T21:10:59.041Z,73.83
2023-02-19T21:13:27.979Z,73.72
2023-02-19T21:15:57.061Z,73.35
2023-02-19T21:18:24.796Z,73.02
2023-02-19T21:20:52.550Z,72.67
2023-02-19T21:23:20.268Z,73.08
2023-02-19T21:25:54.227Z,73.25
2023-02-19T21:28:22.285Z,73.13
2023-02-19T21:30:50.097Z,73.06
2023-02-19T21:33:17.897Z,72.82
2023-02-19T21:35:45.997Z,72.41
2023-02-19T21:38:13.725Z,72.30
2023-02-19T21:40:41.518Z,72.18
2023-02-19T21:43:10.637Z,72.40
2023-02-19T21:45:38.490Z,72.01
2023-02-19T21:48:08.349Z,71.79
2023-02-19T21:50:36.249Z,72.45
2023-02-19T21:53:05.493Z,71.86
2023-02-19T21:55:33.411Z,72.30
2023-02-19T21:58:03.452Z,72.38
2023-02-19T22:00:32.858Z,72.24
2023-02-19T22:03:01.037Z,71.88
2023-02-19T22:05:28.877Z,73.08
2023-02-19T22:07:58.181Z,73.02
2023-02-19T22:10:25.919Z,72.60
2023-02-19T22:12:53.658Z,72.44
2023-02-19T22:15:21.436Z,72.99
2023-02-19T22:17:50.545Z,73.13
2023-02-19T22:20:21.658Z,72.25
2023-02-19T22:22:49.815Z,72.23
2023-02-19T22:25:17.819Z,72.68
2023-02-19T22:27:48.938Z,73.29
2023-02-19T22:30:16.857Z,73.11
2023-02-19T22:32:44.601Z,73.87
2023-02-19T22:35:15.679Z,73.68
2023-02-19T22:37:45.990Z,72.68
2023-02-19T22:40:14.182Z,72.65
2023-02-19T22:42:41.934Z,73.38
2023-02-19T22:45:12.087Z,73.51
2023-02-19T22:47:40.191Z,73.73
2023-02-19T22:50:08.862Z,74.09
2023-02-19T22:52:37.946Z,73.93
2023-02-19T22:55:06.187Z,74.02
2023-02-19T22:57:33.966Z,74.21
2023-02-19T23:00:01.749Z,73.42
2023-02-19T23:02:29.516Z,73.45
2023-02-19T23:04:57.294Z,73.97
2023-02-19T23:07:25.234Z,74.33
2023-02-19T23:09:54.463Z,74.49
2023-02-19T23:12:22.206Z,73.99
2023-02-19T23:14:49.949Z,74.38
2023-02-19T23:17:17.747Z,74.52
2023-02-19T23:19:45.616Z,73.80
2023-02-19T23:22:13.511Z,74.49
2023-02-19T23:24:41.313Z,74.75
2023-02-19T23:27:10.415Z,74.15
2023-02-19T23:29:40.494Z,74.53
2023-02-19T23:32:08.302Z,73.87
2023-02-19T23:34:36.137Z,74.20
2023-02-19T23:37:03.884Z,74.30
2023-02-19T23:39:31.759Z,74.61
2023-02-19T23:41:59.608Z,75.27
2023-02-19T23:44:28.708Z,74.62
2023-02-19T23:46:58.888Z,74.75
2023-02-19T23:49:26.638Z,74.48
2023-02-19T23:51:54.400Z,74.17
2023-02-19T23:54:22.128Z,73.96
2023-02-19T23:56:50.096Z,73.96
2023-02-19T23:59:17.884Z,73.47
